Time;durP1;ratioP1;P1;durP2;ratioP2;P2;SDS_P1;SDS_P2;PMS_P1;PMS_P2;Temp;Humidity;BMP_temperature;BMP_pressure;BME280_temperature;BME280_humidity;BME280_pressure;Samples;Min_cycle;Max_cycle;Signal;HPM_P1;HPM_P2
2023/10/26 00:01:40;;;;;;;11.18;6.20;;;10.90;99.90;;;10.84;93.43;99576.94;4825805;29;20046;-64
2023/10/26 00:04:09;;;;;;;7.00;4.80;;;10.60;99.90;;;10.67;94.06;99585.31;4826059;29;20050;-63
2023/10/26 00:06:38;;;;;;;8.88;5.78;;;10.30;99.90;;;10.69;95.41;99591.44;4825797;29;20080;-63
2023/10/26 00:09:06;;;;;;;4.60;4.20;;;10.40;99.90;;;10.76;95.65;99595.66;4825742;29;20559;-63
2023/10/26 00:11:35;;;;;;;5.07;4.68;;;10.40;99.90;;;10.68;95.18;99596.78;4825726;29;20138;-63
2023/10/26 00:14:03;;;;;;;4.65;4.35;;;10.30;99.90;;;10.74;95.11;99601.91;4825375;29;20058;-63
2023/10/26 00:16:32;;;;;;;5.80;5.20;;;10.40;99.90;;;10.72;94.88;99603.72;4825641;29;20058;-63
2023/10/26 00:19:02;;;;;;;5.00;4.60;;;10.40;99.90;;;10.64;94.83;99603.94;4825374;29;20110;-63
2023/10/26 00:21:31;;;;;;;8.50;7.05;;;10.30;99.90;;;10.73;95.64;99595.75;4825406;29;20057;-63
2023/10/26 00:24:00;;;;;;;6.40;5.80;;;10.40;99.90;;;10.70;95.85;99587.88;4825410;29;20532;-63
2023/10/26 00:26:29;;;;;;;5.72;5.10;;;10.40;99.90;;;10.73;95.71;99598.41;4825518;29;20054;-63
2023/10/26 00:28:58;;;;;;;8.10;7.30;;;10.40;99.90;;;10.64;95.10;99598.63;4825621;29;20136;-63
2023/10/26 00:31:26;;;;;;;6.47;5.97;;;10.30;99.90;;;10.72;96.08;99593.16;4825377;29;20054;-64
2023/10/26 00:33:55;;;;;;;7.75;5.18;;;10.40;99.90;;;10.62;95.42;99584.59;4809119;29;20397;-63
2023/10/26 00:36:23;;;;;;;5.10;4.70;;;10.30;99.90;;;10.64;95.63;99582.78;4815066;29;20055;-63
2023/10/26 00:38:54;;;;;;;6.05;5.15;;;10.30;99.90;;;10.77;95.25;99591.25;4825283;29;20081;-65
2023/10/26 00:41:22;;;;;;;4.95;4.55;;;10.40;99.90;;;10.69;94.85;99591.44;4809247;29;20062;-63
2023/10/26 00:43:51;;;;;;;4.82;4.50;;;10.40;99.90;;;10.56;94.79;99591.78;4809131;29;20145;-62
2023/10/26 00:46:20;;;;;;;3.80;3.60;;;10.30;99.90;;;10.27;94.28;99563.44;4825419;29;20058;-63
2023/10/26 00:48:48;;;;;;;4.75;4.32;;;10.10;99.90;;;10.41;93.96;99594.81;4825075;29;20129;-65
2023/10/26 00:51:17;;;;;;;4.78;4.38;;;10.00;99.90;;;10.38;94.68;99597.50;4825415;29;20053;-63
2023/10/26 00:53:46;;;;;;;5.78;5.38;;;10.00;99.90;;;10.50;95.33;99582.25;4808893;29;20069;-64
2023/10/26 00:56:20;;;;;;;5.40;5.00;;;10.10;99.90;;;10.58;95.57;99587.34;4825285;29;20069;-64
2023/10/26 00:58:50;;;;;;;6.22;5.65;;;10.20;99.90;;;10.66;95.99;99588.91;4825294;29;20058;-63
2023/10/26 01:01:19;;;;;;;5.70;5.20;;;10.30;99.90;;;10.66;95.71;99591.53;4825156;29;20099;-64
2023/10/26 01:03:49;;;;;;;7.85;6.30;;;10.30;99.90;;;10.76;95.13;99597.47;4810544;29;20125;-63
2023/10/26 01:06:17;;;;;;;7.55;6.85;;;10.40;99.90;;;10.82;95.40;99597.28;4820490;29;20087;-63
2023/10/26 01:08:46;;;;;;;7.75;7.05;;;10.50;99.90;;;10.83;95.16;99593.72;4825020;29;20085;-63
2023/10/26 01:11:17;;;;;;;6.60;6.10;;;10.60;99.90;;;10.70;95.18;99593.16;4811652;29;20089;-63
2023/10/26 01:13:48;;;;;;;6.32;5.82;;;10.50;99.90;;;10.59;95.31;99584.66;4821077;29;20046;-62
2023/10/26 01:16:18;;;;;;;9.77;5.50;;;10.30;99.90;;;10.49;95.30;99577.84;4824596;29;20460;-62
2023/10/26 01:18:46;;;;;;;8.25;5.20;;;10.20;99.90;;;10.41;94.96;99578.97;4812476;29;20058;-62
2023/10/26 01:21:15;;;;;;;7.70;7.00;;;10.10;99.90;;;10.40;95.77;99579.84;4824359;29;20050;-63
2023/10/26 01:23:45;;;;;;;8.20;7.45;;;10.10;99.90;;;10.57;96.62;99573.25;4807875;29;20051;-63
2023/10/26 01:26:13;;;;;;;8.17;7.37;;;10.20;99.90;;;10.63;96.77;99577.50;4824723;29;20054;-63
2023/10/26 01:28:41;;;;;;;9.85;8.88;;;10.30;99.90;;;10.77;96.54;99573.59;4807993;29;20058;-63
2023/10/26 01:31:10;;;;;;;10.55;9.55;;;10.40;99.90;;;10.82;96.74;99571.69;4824769;29;20047;-63
2023/10/26 01:33:38;;;;;;;10.18;9.18;;;10.50;99.90;;;10.88;96.69;99562.72;4824147;29;20077;-63
2023/10/26 01:36:07;;;;;;;10.18;9.18;;;10.50;99.90;;;10.76;96.75;99549.84;4824652;29;20062;-63
2023/10/26 01:38:36;;;;;;;11.38;10.10;;;10.60;99.90;;;10.82;97.03;99549.66;4808210;29;20074;-65
2023/10/26 01:41:07;;;;;;;11.98;10.35;;;10.60;99.90;;;11.01;96.55;99580.03;4808176;29;20050;-63
2023/10/26 01:43:35;;;;;;;9.82;7.97;;;10.70;99.90;;;11.05;95.79;99584.34;4808105;29;20404;-63
2023/10/26 01:46:04;;;;;;;8.73;7.47;;;10.80;99.90;;;11.01;95.36;99579.16;4824607;29;20054;-63
2023/10/26 01:48:33;;;;;;;10.27;9.27;;;10.80;99.90;;;10.99;95.21;99589.78;4824629;29;20075;-63
2023/10/26 01:51:02;;;;;;;6.82;6.30;;;10.80;99.90;;;10.95;95.00;99596.06;4807943;29;20062;-63
2023/10/26 01:53:30;;;;;;;10.55;9.50;;;10.70;99.90;;;10.78;94.52;99595.66;4824378;29;20111;-63
2023/10/26 01:55:59;;;;;;;8.95;8.05;;;10.60;99.90;;;10.73;94.25;99603.69;4820885;29;20145;-63
2023/10/26 01:58:29;;;;;;;10.13;7.47;;;10.50;99.90;;;10.62;94.31;99594.28;4807910;29;20149;-63
2023/10/26 02:00:57;;;;;;;7.50;6.80;;;10.40;99.90;;;10.65;94.86;99587.13;4819955;29;20055;-63
2023/10/26 02:03:26;;;;;;;9.93;7.13;;;10.40;99.90;;;10.60;95.79;99580.25;4824093;29;20050;-63
2023/10/26 02:05:54;;;;;;;10.05;7.75;;;10.30;99.90;;;10.55;96.07;99582.97;4818294;29;20086;-63
2023/10/26 02:08:23;;;;;;;8.57;7.68;;;10.30;99.90;;;10.53;96.03;99582.16;4824014;29;20500;-63
2023/10/26 02:10:52;;;;;;;11.68;7.47;;;10.20;99.90;;;10.57;96.35;99572.38;4824256;29;20106;-63
2023/10/26 02:13:20;;;;;;;9.10;7.68;;;10.30;99.90;;;10.62;96.14;99574.00;4824159;29;20549;-63
2023/10/26 02:15:50;;;;;;;7.90;7.20;;;10.30;99.90;;;10.60;96.42;99564.38;4823546;29;20050;-63
2023/10/26 02:18:19;;;;;;;7.87;7.10;;;10.30;99.90;;;10.63;96.48;99567.81;4810723;29;20054;-63
2023/10/26 02:20:47;;;;;;;8.60;7.20;;;10.30;99.90;;;10.62;96.58;99570.50;4823629;29;20364;-63
2023/10/26 02:23:16;;;;;;;7.38;6.70;;;10.30;99.90;;;10.61;96.46;99568.72;4801252;29;20055;-64
2023/10/26 02:25:44;;;;;;;6.82;6.22;;;10.30;99.90;;;10.56;96.67;99565.34;4787690;30;20055;-63
2023/10/26 02:28:15;;;;;;;6.85;6.25;;;10.20;99.90;;;10.56;96.95;99558.31;4787844;30;20118;-63
2023/10/26 02:30:45;;;;;;;6.93;6.43;;;10.30;99.90;;;10.61;97.08;99568.72;4786596;30;20101;-63
2023/10/26 02:33:15;;;;;;;6.40;5.90;;;10.30;99.90;;;10.72;97.85;99569.34;4787527;30;20055;-63
2023/10/26 02:35:43;;;;;;;6.93;6.32;;;10.30;99.90;;;10.82;98.53;99570.81;4787691;30;20084;-63
2023/10/26 02:38:12;;;;;;;19.55;7.40;;;10.40;99.90;;;10.80;98.43;99567.38;4786421;30;20062;-64
2023/10/26 02:40:40;;;;;;;6.18;5.55;;;10.40;99.90;;;10.67;97.65;99564.16;4801304;29;20079;-64
2023/10/26 02:43:09;;;;;;;15.10;7.10;;;10.30;99.90;;;10.37;99.94;99521.78;4787015;29;20140;-63
2023/10/26 02:45:37;;;;;;;43.67;10.23;;;10.20;99.90;;;10.77;100.00;99562.16;4777220;30;20395;-64
2023/10/26 02:48:06;;;;;;;9.40;8.50;;;10.40;99.90;;;10.78;100.00;99546.25;4790342;30;20486;-63
2023/10/26 02:50:37;;;;;;;21.25;8.35;;;10.50;99.90;;;10.87;99.87;99553.06;4791250;30;20047;-64
2023/10/26 02:53:05;;;;;;;17.25;8.98;;;10.50;99.90;;;10.85;100.00;99544.31;4791274;30;20051;-63
2023/10/26 02:55:33;;;;;;;8.63;7.82;;;10.60;99.90;;;10.97;100.00;99551.06;4789580;30;20112;-64
2023/10/26 02:58:02;;;;;;;8.98;8.18;;;10.60;99.90;;;10.98;100.00;99553.66;4791119;30;20082;-64
2023/10/26 03:00:30;;;;;;;9.57;8.68;;;10.70;99.90;;;11.04;99.86;99564.06;4791078;30;20047;-63
2023/10/26 03:02:58;;;;;;;8.77;7.93;;;10.70;99.90;;;11.05;99.15;99567.59;4789682;30;20078;-64
2023/10/26 03:05:29;;;;;;;8.50;7.70;;;10.80;99.90;;;11.04;98.62;99565.84;4791070;29;20050;-63
2023/10/26 03:07:59;;;;;;;8.95;8.25;;;10.80;99.90;;;11.05;98.36;99563.16;4791011;30;20047;-65
2023/10/26 03:10:28;;;;;;;9.23;8.43;;;10.80;99.90;;;10.37;98.19;99442.50;4804783;29;20051;-65
2023/10/26 03:12:57;;;;;;;7.95;7.30;;;10.80;99.90;;;11.05;98.38;99562.28;4789613;30;20051;-65
2023/10/26 03:15:26;;;;;;;16.38;8.82;;;10.80;99.90;;;11.01;98.59;99555.34;4789673;30;20055;-64
2023/10/26 03:17:55;;;;;;;21.00;8.70;;;10.70;99.90;;;10.96;98.53;99549.28;4790221;30;20517;-64
2023/10/26 03:20:24;;;;;;;8.48;7.60;;;10.70;99.90;;;10.95;98.25;99556.38;4790439;30;20398;-64
2023/10/26 03:22:52;;;;;;;8.38;7.53;;;10.70;99.90;;;10.87;97.70;99545.13;4799113;29;20058;-64
2023/10/26 03:25:23;;;;;;;8.07;7.30;;;10.60;99.90;;;10.82;98.00;99544.38;4826315;29;20074;-63
2023/10/26 03:27:51;;;;;;;8.90;8.03;;;10.50;99.90;;;10.77;97.85;99541.00;4812797;29;20042;-64
2023/10/26 03:30:20;;;;;;;9.77;8.73;;;10.50;99.90;;;10.78;98.08;99535.66;4826549;29;20050;-63
2023/10/26 03:32:49;;;;;;;8.85;8.00;;;10.50;99.90;;;10.82;98.05;99539.97;4815626;29;20104;-64
2023/10/26 03:35:17;;;;;;;10.63;9.52;;;10.50;99.90;;;10.83;98.23;99538.19;4826392;29;20504;-64
2023/10/26 03:37:45;;;;;;;16.08;10.10;;;10.50;99.90;;;10.82;98.21;99539.97;4826469;29;20075;-63
2023/10/26 03:40:14;;;;;;;20.23;9.15;;;10.50;99.90;;;10.63;97.86;99529.91;4826626;29;20050;-63
2023/10/26 03:42:44;;;;;;;10.50;9.50;;;10.30;99.90;;;10.72;98.55;99533.19;4826228;29;20401;-64
2023/10/26 03:45:13;;;;;;;10.30;9.30;;;10.40;99.90;;;10.82;98.48;99533.78;4826762;29;20046;-64
2023/10/26 03:47:43;;;;;;;11.60;10.50;;;10.50;99.90;;;10.86;98.49;99530.16;4826386;29;20058;-63
2023/10/26 03:50:11;;;;;;;12.52;11.20;;;10.50;99.90;;;10.88;98.48;99523.06;4826362;29;20066;-63
2023/10/26 03:52:44;;;;;;;14.80;12.98;;;10.60;99.90;;;11.02;98.67;99520.91;4795874;29;20046;-64
2023/10/26 03:55:12;;;;;;;16.63;14.82;;;10.70;99.90;;;11.15;98.66;99522.28;4825451;29;20050;-63
2023/10/26 03:57:40;;;;;;;16.60;13.68;;;10.80;99.90;;;11.19;98.81;99505.41;4826036;29;20479;-64
2023/10/26 04:00:12;;;;;;;15.05;13.50;;;10.90;99.90;;;11.24;98.68;99511.47;4826160;29;20128;-64
2023/10/26 04:02:41;;;;;;;16.73;14.52;;;11.00;99.90;;;11.29;98.55;99508.66;4825864;29;20454;-63
2023/10/26 04:05:10;;;;;;;21.73;17.73;;;11.00;99.90;;;11.28;99.54;99505.16;4809759;29;20489;-65
2023/10/26 04:07:39;;;;;;;21.13;17.60;;;11.10;99.90;;;11.32;100.00;99498.88;4825814;29;20153;-63
2023/10/26 04:10:09;;;;;;;22.00;18.10;;;11.10;99.90;;;11.38;100.00;99498.66;4826042;29;20073;-63
2023/10/26 04:12:38;;;;;;;18.83;16.10;;;11.10;99.90;;;11.29;100.00;99484.84;4818429;29;20111;-63
2023/10/26 04:15:08;;;;;;;20.20;16.42;;;11.20;99.90;;;11.42;100.00;99507.41;4825696;29;20495;-63
2023/10/26 04:17:37;;;;;;;20.10;17.70;;;11.20;99.90;;;11.43;100.00;99512.66;4825665;29;20055;-63
2023/10/26 04:20:08;;;;;;;21.50;17.55;;;11.20;99.90;;;11.38;99.88;99514.56;4809459;29;20053;-64
2023/10/26 04:22:37;;;;;;;19.25;16.35;;;11.20;99.90;;;11.19;100.00;99515.16;4825385;29;20062;-63
2023/10/26 04:25:06;;;;;;;19.10;15.82;;;11.00;99.90;;;10.78;100.00;99505.72;4825566;29;20090;-65
2023/10/26 04:27:35;;;;;;;17.23;15.38;;;10.60;99.90;;;10.55;100.00;99508.13;4825318;29;20054;-63
2023/10/26 04:30:05;;;;;;;14.55;12.18;;;10.40;99.90;;;10.63;100.00;99514.03;4825397;29;20046;-64
2023/10/26 04:32:33;;;;;;;33.13;13.45;;;10.30;99.90;;;10.43;100.00;99511.91;4825158;29;20412;-63
2023/10/26 04:35:03;;;;;;;15.50;13.63;;;10.10;99.90;;;10.51;100.00;99507.31;4825408;29;20497;-63
2023/10/26 04:37:32;;;;;;;16.38;13.82;;;10.20;99.90;;;10.61;100.00;99507.94;4818352;29;20489;-64
2023/10/26 04:40:00;;;;;;;17.35;13.13;;;10.30;99.90;;;10.49;100.00;99487.13;4824932;29;20055;-63
2023/10/26 04:42:31;;;;;;;13.90;12.50;;;10.20;99.90;;;10.57;100.00;99503.63;4824994;29;20133;-64
2023/10/26 04:44:59;;;;;;;23.60;13.13;;;10.30;99.90;;;10.56;99.81;99509.84;4825267;29;20050;-63
2023/10/26 04:47:28;;;;;;;14.68;12.48;;;10.30;99.90;;;10.50;99.29;99507.34;4825265;29;20042;-63
2023/10/26 04:49:56;;;;;;;13.05;11.63;;;10.20;99.90;;;10.46;99.31;99509.22;4824876;29;20042;-63
2023/10/26 04:52:26;;;;;;;15.70;12.82;;;10.20;99.90;;;10.45;99.00;99511.91;4825181;29;20054;-64
2023/10/26 04:54:54;;;;;;;14.00;12.60;;;10.20;99.90;;;10.45;99.33;99517.19;4824898;29;20058;-63
2023/10/26 04:57:23;;;;;;;91.95;14.25;;;10.20;99.90;;;10.31;99.65;99506.97;4824894;29;20058;-65
2023/10/26 04:59:51;;;;;;;17.15;12.07;;;10.10;99.90;;;10.30;100.00;99507.84;4810577;29;20054;-63
2023/10/26 05:02:19;;;;;;;23.40;10.85;;;10.00;99.90;;;10.26;100.00;99506.19;4824652;29;20046;-64
2023/10/26 05:04:48;;;;;;;13.57;9.57;;;10.00;99.90;;;10.18;100.00;99505.50;4824654;29;20050;-63
2023/10/26 05:07:16;;;;;;;13.43;11.40;;;9.90;99.90;;;9.95;100.00;99500.75;4823877;29;20493;-64
2023/10/26 05:09:46;;;;;;;12.77;11.57;;;9.60;99.90;;;10.08;100.00;99506.63;4824951;29;20054;-63
2023/10/26 05:12:14;;;;;;;20.33;17.35;;;9.80;99.90;;;10.10;100.00;99510.16;4824889;29;20054;-64
2023/10/26 05:14:42;;;;;;;31.60;22.83;;;9.80;99.90;;;10.20;100.00;99529.28;4824723;29;20390;-63
2023/10/26 05:17:11;;;;;;;36.55;26.65;;;9.80;99.90;;;10.30;100.00;99507.00;4824819;29;20046;-64
2023/10/26 05:19:40;;;;;;;30.15;24.63;;;9.90;99.90;;;10.42;100.00;99507.56;4824795;29;20047;-64
2023/10/26 05:22:08;;;;;;;25.00;20.80;;;10.00;99.90;;;10.45;100.00;99502.16;4824550;29;20109;-65
2023/10/26 05:24:38;;;;;;;52.72;21.45;;;10.10;99.90;;;10.44;100.00;99497.81;4824936;29;20139;-63
2023/10/26 05:27:08;;;;;;;28.30;21.27;;;10.20;99.90;;;10.46;100.00;99497.75;4825015;29;20057;-64
2023/10/26 05:29:36;;;;;;;33.17;20.03;;;10.10;99.90;;;10.50;100.00;99488.84;4824612;29;20097;-64
2023/10/26 05:32:05;;;;;;;26.02;21.33;;;10.20;99.90;;;10.52;100.00;99487.03;4824743;29;20051;-64
2023/10/26 05:34:34;;;;;;;37.45;24.38;;;10.20;99.90;;;10.42;100.00;99483.75;4824946;29;20058;-64
2023/10/26 05:37:02;;;;;;;25.80;21.10;;;10.10;99.90;;;10.43;100.00;99482.00;4824275;29;20133;-65
2023/10/26 05:39:33;;;;;;;80.63;23.05;;;10.10;99.90;;;10.15;100.00;99439.56;4824462;29;20171;-63
2023/10/26 05:42:04;;;;;;;60.45;22.48;;;10.00;99.90;;;10.34;100.00;99474.28;4810535;29;20088;-65
2023/10/26 05:44:34;;;;;;;29.88;21.40;;;10.00;99.90;;;10.38;100.00;99483.88;4824783;29;20466;-64
2023/10/26 05:47:02;;;;;;;89.72;23.80;;;10.10;99.90;;;10.33;100.00;99478.72;4824575;29;20057;-65
2023/10/26 05:49:30;;;;;;;203.50;26.63;;;10.10;99.90;;;10.13;100.00;99478.34;4824267;29;20134;-64
2023/10/26 05:52:00;;;;;;;244.13;27.67;;;9.90;99.90;;;9.85;100.00;99480.75;4824516;29;20125;-65
2023/10/26 05:54:29;;;;;;;206.60;26.42;;;9.70;99.90;;;9.46;100.00;99472.91;4824271;29;20160;-65
2023/10/26 05:56:58;;;;;;;206.45;27.40;;;9.30;99.90;;;9.23;100.00;99468.16;4824061;29;20081;-65
2023/10/26 05:59:26;;;;;;;237.45;29.02;;;9.10;99.90;;;9.12;100.00;99462.19;4823827;29;20420;-64
2023/10/26 06:01:56;;;;;;;139.13;27.70;;;8.90;99.90;;;9.35;100.00;99464.38;4823775;29;20408;-65
2023/10/26 06:04:25;;;;;;;212.32;29.55;;;9.10;99.90;;;9.24;100.00;99450.53;4824008;29;20412;-65
2023/10/26 06:06:53;;;;;;;144.00;27.38;;;9.00;99.90;;;9.40;100.00;99460.72;4824346;29;20051;-65
2023/10/26 06:09:22;;;;;;;91.68;26.95;;;9.10;99.90;;;9.49;100.00;99455.22;4807358;29;20149;-65
2023/10/26 06:11:51;;;;;;;142.52;30.73;;;9.30;99.90;;;9.57;100.00;99460.31;4824260;29;20086;-65
2023/10/26 06:14:19;;;;;;;116.10;30.25;;;9.30;99.90;;;9.77;100.00;99453.69;4824102;29;20050;-65
2023/10/26 06:16:48;;;;;;;91.22;29.23;;;9.50;99.90;;;9.75;100.00;99455.50;4823811;29;20054;-64
2023/10/26 06:19:18;;;;;;;155.73;31.60;;;9.60;99.90;;;9.78;100.00;99459.81;4823473;29;20421;-64
2023/10/26 06:21:46;;;;;;;149.52;30.90;;;9.60;99.90;;;9.82;100.00;99449.16;4823907;29;20412;-65
2023/10/26 06:24:14;;;;;;;130.05;32.35;;;9.60;99.90;;;9.80;100.00;99456.25;4823881;29;20063;-65
2023/10/26 06:26:43;;;;;;;121.15;32.67;;;9.60;99.90;;;9.95;100.00;99455.88;4823709;29;20500;-65
2023/10/26 06:29:10;;;;;;;98.50;30.27;;;9.70;99.90;;;10.20;100.00;99455.28;4823801;29;20058;-64
2023/10/26 06:31:39;;;;;;;56.25;27.70;;;9.90;99.90;;;10.26;100.00;99458.63;4823701;29;20062;-64
2023/10/26 06:34:07;;;;;;;138.57;30.25;;;10.00;99.90;;;10.36;100.00;99453.97;4824138;29;20054;-65
2023/10/26 06:36:37;;;;;;;177.68;31.67;;;10.10;99.90;;;10.07;100.00;99467.03;4823695;29;20059;-66
2023/10/26 06:39:05;;;;;;;216.13;32.20;;;10.00;99.90;;;9.90;100.00;99460.41;4824063;29;20507;-63
2023/10/26 06:41:34;;;;;;;131.13;30.70;;;9.80;99.90;;;9.85;100.00;99469.34;4823811;29;20398;-63
2023/10/26 06:44:05;;;;;;;180.18;34.53;;;9.60;99.90;;;10.03;100.00;99474.16;4807285;29;20413;-62
2023/10/26 06:46:33;;;;;;;145.35;31.58;;;9.80;99.90;;;10.17;100.00;99472.09;4823575;29;20457;-63
2023/10/26 06:49:01;;;;;;;188.20;32.35;;;9.90;99.90;;;10.06;100.00;99473.22;4823355;29;20543;-67
2023/10/26 06:51:48;;;;;;;254.57;37.10;;;9.90;99.90;;;9.98;100.00;99469.00;4823486;29;20093;-63
2023/10/26 06:54:16;;;;;;;323.65;38.88;;;9.80;99.90;;;9.87;100.00;99471.03;4824114;29;20115;-65
2023/10/26 06:56:45;;;;;;;248.48;35.65;;;9.70;99.90;;;10.07;100.00;99467.91;4809208;29;20050;-64
2023/10/26 06:59:13;;;;;;;188.88;35.72;;;9.80;99.90;;;10.18;100.00;99475.59;4823334;29;20501;-65
2023/10/26 07:01:42;;;;;;;70.53;31.92;;;9.90;99.90;;;10.28;100.00;99467.38;4823120;29;20085;-66
2023/10/26 07:04:32;;;;;;;135.60;34.65;;;10.00;99.90;;;10.48;100.00;99458.94;4809420;29;20042;-64
2023/10/26 07:07:05;;;;;;;153.13;36.70;;;10.20;99.90;;;10.60;100.00;99464.78;4823245;29;20066;-65
2023/10/26 07:09:38;;;;;;;138.20;31.05;;;10.40;99.90;;;10.57;100.00;99463.97;4823528;29;20078;-64
2023/10/26 07:12:11;;;;;;;78.80;29.00;;;10.40;99.90;;;10.44;100.00;99473.16;4809642;29;20050;-65
2023/10/26 07:14:43;;;;;;;174.70;33.38;;;10.20;99.90;;;9.99;100.00;99472.50;4823255;29;20047;-65
2023/10/26 07:17:13;;;;;;;143.85;32.70;;;9.90;99.90;;;9.78;100.00;99473.91;4806767;29;20050;-65
2023/10/26 07:19:42;;;;;;;44.70;30.60;;;9.60;99.90;;;10.01;100.00;99478.63;4822201;29;20046;-65
2023/10/26 07:22:12;;;;;;;227.25;34.47;;;9.70;99.90;;;9.86;100.00;99465.78;4823118;29;20448;-64
2023/10/26 07:24:40;;;;;;;184.87;31.40;;;9.80;99.90;;;9.88;100.00;99477.19;4823548;29;20131;-64
2023/10/26 07:27:09;;;;;;;284.48;37.30;;;9.70;99.90;;;9.84;100.00;99464.97;4823121;29;20137;-65
2023/10/26 07:29:38;;;;;;;130.25;33.13;;;9.70;99.90;;;10.01;100.00;99458.34;4823183;29;20054;-66
2023/10/26 07:32:07;;;;;;;317.45;38.75;;;9.80;99.90;;;9.98;100.00;99476.94;4826394;29;20054;-65
2023/10/26 07:34:35;;;;;;;206.70;35.80;;;9.80;99.90;;;9.98;100.00;99478.72;4826347;29;20050;-64
2023/10/26 07:37:04;;;;;;;64.75;32.90;;;9.70;99.90;;;10.19;100.00;99469.41;4810231;29;20050;-64
2023/10/26 07:39:37;;;;;;;135.43;35.42;;;9.90;99.90;;;10.35;100.00;99478.69;4826219;29;20068;-64
2023/10/26 07:42:15;;;;;;;144.05;36.38;;;10.20;99.90;;;10.23;100.00;99471.06;4826098;29;20061;-63
2023/10/26 07:44:44;;;;;;;199.65;36.28;;;10.10;99.90;;;10.38;100.00;99482.09;4812411;29;20057;-63
2023/10/26 07:47:13;;;;;;;235.88;38.33;;;10.20;99.90;;;10.40;100.00;99475.00;4826101;29;20095;-64
2023/10/26 07:49:41;;;;;;;206.20;39.13;;;10.30;99.90;;;10.41;100.00;99468.81;4826553;29;20046;-66
2023/10/26 07:52:10;;;;;;;222.63;41.22;;;10.30;99.90;;;10.43;100.00;99471.44;4825963;29;20132;-63
2023/10/26 07:54:39;;;;;;;267.58;40.55;;;10.30;99.90;;;10.23;100.00;99471.94;4826281;29;20046;-63
2023/10/26 07:57:08;;;;;;;148.35;36.67;;;10.10;99.90;;;10.21;100.00;99473.75;4826526;29;20129;-64
2023/10/26 07:59:36;;;;;;;169.90;36.85;;;10.10;99.90;;;10.40;100.00;99476.78;4825893;29;20450;-65
2023/10/26 08:02:04;;;;;;;201.15;39.92;;;10.20;99.90;;;10.14;100.00;99480.09;4809907;29;20413;-64
2023/10/26 08:04:33;;;;;;;276.90;42.53;;;10.00;99.90;;;10.26;100.00;99460.44;4825782;29;20481;-63
2023/10/26 08:07:01;;;;;;;175.10;39.83;;;10.10;99.90;;;10.11;100.00;99474.00;4825698;29;20489;-61
2023/10/26 08:09:32;;;;;;;156.25;39.60;;;10.00;99.90;;;10.39;100.00;99469.78;4825746;29;20110;-62
2023/10/26 08:12:02;;;;;;;158.23;41.60;;;10.10;99.90;;;10.28;100.00;99467.38;4825761;29;20497;-62
2023/10/26 08:14:31;;;;;;;195.55;40.88;;;10.10;99.90;;;10.07;100.00;99472.31;4825969;29;20082;-62
2023/10/26 08:17:20;;;;;;;80.90;39.67;;;10.00;99.90;;;10.18;100.00;99470.31;4811881;29;20043;-63
2023/10/26 08:19:53;;;;;;;240.48;44.38;;;9.90;99.90;;;10.04;100.00;99476.75;4825561;29;20412;-63
2023/10/26 08:22:22;;;;;;;105.18;39.92;;;9.90;99.90;;;10.01;100.00;99466.28;4825839;29;20054;-63
2023/10/26 08:24:50;;;;;;;161.00;41.60;;;9.90;99.90;;;10.13;100.00;99477.47;4825731;29;20059;-63
2023/10/26 08:27:20;;;;;;;89.35;40.40;;;10.00;99.90;;;10.20;100.00;99473.78;4825483;29;20421;-64
2023/10/26 08:29:51;;;;;;;91.13;39.37;;;10.00;99.90;;;10.11;100.00;99481.94;4825699;29;20421;-63
2023/10/26 08:32:19;;;;;;;86.32;40.72;;;10.00;99.90;;;10.04;100.00;99494.41;4809014;29;20352;-65
2023/10/26 08:34:48;;;;;;;88.53;41.80;;;9.90;99.90;;;10.16;100.00;99480.94;4825319;29;20057;-64
2023/10/26 08:37:18;;;;;;;86.22;42.40;;;10.00;99.90;;;10.16;100.00;99486.22;4825503;29;20073;-64
2023/10/26 08:39:46;;;;;;;81.43;41.85;;;10.00;99.90;;;10.18;100.00;99486.19;4825204;29;20073;-65
2023/10/26 08:42:15;;;;;;;77.53;42.33;;;10.00;99.90;;;10.24;100.00;99471.00;4825605;29;20054;-67
2023/10/26 08:44:45;;;;;;;79.93;43.05;;;10.00;99.90;;;10.25;100.00;99477.16;4825088;29;20058;-67
2023/10/26 08:47:17;;;;;;;92.70;45.58;;;10.10;99.90;;;10.28;100.00;99472.69;4825443;29;20549;-62
2023/10/26 08:49:47;;;;;;;87.55;43.80;;;10.10;99.90;;;10.60;100.00;99479.78;4825179;29;20050;-65
2023/10/26 08:52:35;;;;;;;87.22;42.42;;;10.40;99.90;;;10.61;100.00;99487.66;4825195;29;20131;-64
2023/10/26 08:55:05;;;;;;;77.75;40.35;;;10.40;99.90;;;10.64;100.00;99476.13;4825047;29;20046;-64
2023/10/26 08:57:33;;;;;;;95.03;42.10;;;10.40;99.90;;;11.11;100.00;99473.00;4811115;29;20061;-63
2023/10/26 09:00:06;;;;;;;75.45;41.05;;;10.80;99.90;;;11.08;100.00;99473.13;4825238;29;20046;-64
2023/10/26 09:02:34;;;;;;;84.95;41.33;;;10.90;99.90;;;11.09;100.00;99464.25;4825067;29;20051;-63
2023/10/26 09:05:04;;;;;;;89.25;43.08;;;10.90;99.90;;;11.31;100.00;99468.00;4824757;29;20053;-65
2023/10/26 09:07:32;;;;;;;80.88;40.92;;;11.10;99.90;;;11.43;100.00;99472.06;4825060;29;20491;-66
2023/10/26 09:10:01;;;;;;;81.25;41.50;;;11.20;99.90;;;11.44;100.00;99472.00;4825199;29;20061;-63
2023/10/26 09:12:30;;;;;;;76.28;39.40;;;11.30;99.90;;;11.44;100.00;99485.25;4824772;29;20146;-65
2023/10/26 09:14:58;;;;;;;77.93;38.47;;;11.30;99.90;;;11.12;100.00;99484.47;4824874;29;20050;-64
2023/10/26 09:17:30;;;;;;;77.72;37.97;;;11.00;99.90;;;10.72;100.00;99475.00;4824732;29;20051;-64
2023/10/26 09:19:59;;;;;;;74.07;37.95;;;10.60;99.90;;;10.70;100.00;99482.09;4825070;29;20058;-66
2023/10/26 09:22:38;;;;;;;75.57;38.95;;;10.60;99.90;;;10.82;100.00;99468.56;4810334;29;20054;-62
2023/10/26 09:25:12;;;;;;;73.80;38.58;;;10.60;99.90;;;10.21;100.00;99346.06;4824499;29;20062;-61
2023/10/26 09:27:44;;;;;;;77.55;39.50;;;10.60;99.90;;;10.72;100.00;99458.28;4812352;29;20140;-64
2023/10/26 09:30:29;;;;;;;77.65;39.67;;;10.60;99.90;;;10.77;100.00;99454.59;4810902;29;20051;-64
2023/10/26 09:32:59;;;;;;;75.20;39.22;;;10.60;99.90;;;10.93;100.00;99455.03;4823929;29;20059;-63
2023/10/26 09:35:30;;;;;;;79.18;41.53;;;10.70;99.90;;;10.96;100.00;99443.47;4811152;29;20397;-63
2023/10/26 09:37:59;;;;;;;79.00;39.92;;;10.80;99.90;;;11.10;100.00;99459.84;4824639;29;20054;-64
2023/10/26 09:40:29;;;;;;;83.38;41.63;;;10.90;99.90;;;11.19;100.00;99460.44;4824596;29;20050;-64
2023/10/26 09:42:57;;;;;;;78.37;40.83;;;11.00;99.90;;;11.30;100.00;99452.19;4824465;29;20051;-64
2023/10/26 09:45:27;;;;;;;74.93;39.85;;;11.10;99.90;;;11.29;100.00;99459.25;4824239;29;20096;-64
2023/10/26 09:47:56;;;;;;;76.03;41.10;;;11.10;99.90;;;11.37;100.00;99459.88;4824295;29;20050;-64
2023/10/26 09:50:26;;;;;;;71.55;38.85;;;11.20;99.90;;;11.39;100.00;99460.72;4824228;29;20481;-64
2023/10/26 09:52:56;;;;;;;71.95;38.53;;;11.20;99.90;;;11.59;100.00;99455.66;4823735;29;20511;-64
2023/10/26 09:55:26;;;;;;;67.95;39.28;;;11.40;99.90;;;11.72;100.00;99450.88;4824226;29;20054;-64
2023/10/26 09:58:00;;;;;;;62.63;36.10;;;11.50;99.90;;;11.81;100.00;99455.03;4824194;29;20051;-64
2023/10/26 10:00:35;;;;;;;60.38;35.45;;;11.60;99.90;;;12.08;100.00;99439.06;4824187;29;20145;-64
2023/10/26 10:03:14;;;;;;;53.42;32.67;;;11.90;99.90;;;12.34;100.00;99456.75;4824109;29;20525;-64
2023/10/26 10:05:46;;;;;;;53.92;33.20;;;12.20;99.90;;;12.83;100.00;99458.56;4813961;29;20055;-65
2023/10/26 10:08:56;;;;;;;47.33;30.35;;;12.60;99.90;;;12.64;100.00;99459.22;4824270;29;20099;-64
2023/10/26 10:11:25;;;;;;;47.80;29.67;;;12.50;99.90;;;12.59;100.00;99465.59;4823666;29;20450;-64
2023/10/26 10:13:54;;;;;;;42.50;27.90;;;12.40;99.90;;;12.70;100.00;99464.28;4823924;29;20132;-65
2023/10/26 10:16:52;;;;;;;44.63;28.83;;;12.50;99.90;;;13.09;100.00;99467.31;4824290;29;20050;-64
2023/10/26 10:19:23;;;;;;;42.97;27.88;;;12.80;99.90;;;13.48;100.00;99470.25;4821486;29;20062;-64